Date,TemperatureHighF,TemperatureAvgF,TemperatureLowF,DewpointHighF,DewpointAvgF,DewpointLowF,HumidityHigh,HumidityAvg,HumidityLow,PressureMaxIn,PressureMinIn,WindSpeedMaxMPH,WindSpeedAvgMPH,GustSpeedMaxMPH,PrecipitationSumIn
2013-1-1,36.4,32.1,26.3,35.4,30.9,24.3,97,95,92,30.27,30.05,4,2,9,0.01
2013-1-2,35.1,26.5,21.4,25.1,21.7,19.3,93,83,57,30.33,30.24,5,1,9,0.00
2013-1-3,42.4,29.4,18.3,31.9,23.4,16.4,95,80,53,30.50,30.32,3,0,7,0.00
2013-1-4,46.8,32.8,20.1,27.0,23.2,18.1,95,71,40,30.52,30.37,7,2,9,0.00
2013-1-5,42.4,36.6,30.6,34.4,29.0,21.6,90,74,64,30.37,30.20,10,4,17,0.00
2013-1-6,44.6,34.7,24.9,31.0,25.1,19.9,94,71,43,30.41,30.27,5,2,10,0.00
2013-1-7,50.8,37.9,24.0,30.0,24.9,18.4,84,61,40,30.39,30.14,11,3,17,0.00
2013-1-8,57.8,43.5,31.4,44.4,34.1,23.4,95,71,51,30.22,30.05,10,2,18,0.06
2013-1-9,47.2,46.4,45.6,46.1,45.3,44.3,96,96,95,30.23,30.22,3,2,4,0.02
2013-2-25,41.2,39.4,36.9,38.7,36.6,33.0,93,90,84,29.58,29.42,12,7,18,0.46
2013-2-26,36.8,34.1,32.9,35.0,31.1,29.6,94,89,85,29.92,29.40,8,4,13,0.04
2013-2-27,42.5,34.6,29.1,32.9,29.0,25.0,90,80,63,30.13,29.90,6,3,13,0.00
2013-2-28,30.2,27.9,26.9,25.4,24.3,23.7,89,86,82,30.14,30.12,1,0,4,0.00
2013-3-30,63.0,60.9,57.6,57.0,56.5,55.6,93,86,80,29.92,29.87,4,1,3,0.45
2013-3-31,67.9,57.6,49.4,55.6,48.1,39.8,97,74,39,29.97,29.84,10,2,11,0.01
2013-4-1,65.1,50.9,42.3,46.5,41.7,36.5,89,72,46,30.15,29.96,12,4,16,0.00
2013-4-2,43.7,38.5,36.0,36.7,34.4,31.4,94,86,69,30.25,30.15,9,6,14,0.66
2013-4-3,48.2,41.8,36.1,38.8,29.2,23.6,89,62,40,30.26,30.17,12,5,19,0.04
2013-4-4,57.8,47.1,39.8,39.0,37.3,33.6,93,71,45,30.18,30.07,5,1,10,0.04
2013-4-5,70.0,52.0,33.1,44.0,36.4,30.2,92,60,31,30.22,29.99,7,2,9,0.00
2013-4-6,73.4,62.7,53.7,50.8,45.2,37.6,68,53,40,29.99,29.78,17,8,26,0.00
2013-4-7,74.0,64.5,56.0,61.5,55.2,49.0,87,72,59,29.89,29.71,11,5,18,0.00
2013-4-8,72.3,65.8,60.5,61.9,57.9,54.7,87,76,65,29.79,29.68,11,4,18,0.03
2013-4-9,81.5,72.2,64.2,65.4,60.6,56.2,80,68,54,29.74,29.66,10,6,17,0.00
2013-4-10,73.5,68.8,54.3,64.6,60.3,50.4,87,75,69,29.72,29.67,12,7,18,0.01